Time,TemperatureF,DewpointF,PressureIn,WindDirection,WindDirectionDegrees,WindSpeedMPH,WindSpeedGustMPH,Humidity,HourlyPrecipIn,Conditions,Clouds,dailyrainin,SolarRadiationWatts/m^2,SoftwareType,DateUTC
2013-01-05 00:02:00,25.8,18.7,30.47,NW,308,3.0,7.0,74,0.00,,,0.00,0,Wunderground v.1.15,2013-01-05 07:02:00,
2013-01-05 00:08:00,25.4,18.9,30.47,NW,308,2.0,7.0,76,0.00,,,0.00,0,Wunderground v.1.15,2013-01-05 07:08:00,
2013-01-05 00:14:00,24.9,18.7,30.47,NW,308,1.0,7.0,77,0.00,,,0.00,0,Wunderground v.1.15,2013-01-05 07:14:00,
2013-01-05 00:20:00,24.6,18.7,30.47,NW,308,3.0,7.0,78,0.00,,,0.00,0,Wunderground v.1.15,2013-01-05 07:20:00,
2013-01-05 00:26:00,24.3,18.7,30.47,NW,308,4.0,7.0,79,0.00,,,0.00,0,Wunderground v.1.15,2013-01-05 07:26:00,
2013-01-05 00:34:00,23.6,18.0,30.47,NW,308,3.0,7.0,79,0.00,,,0.00,0,Wunderground v.1.15,2013-01-05 07:34:00,
2013-01-05 00:40:00,23.6,18.3,30.48,NW,308,2.0,7.0,80,0.00,,,0.00,0,Wunderground v.1.15,2013-01-05 07:40:00,
2013-01-05 00:46:00,23.6,18.3,30.47,NW,308,1.0,7.0,80,0.00,,,0.00,0,Wunderground v.1.15,2013-01-05 07:46:00,
2013-01-05 00:52:00,23.4,18.1,30.48,NW,308,2.0,7.0,80,0.00,,,0.00,0,Wunderground v.1.15,2013-01-05 07:52:00,
2013-01-05 00:58:00,23.7,18.4,30.48,NW,308,2.0,7.0,80,0.00,,,0.00,0,Wunderground v.1.15,2013-01-05 07:58:00,
2013-01-05 01:04:00,23.9,18.6,30.47,NW,308,2.0,7.0,80,0.00,,,0.00,0,Wunderground v.1.15,2013-01-05 08:04:00,
2013-01-05 01:10:00,24.4,18.8,30.48,NW,308,2.0,7.0,79,0.00,,,0.00,0,Wunderground v.1.15,2013-01-05 08:10:00,
2013-01-05 01:16:00,25.0,19.1,30.48,NW,308,2.0,7.0,78,0.00,,,0.00,0,Wunderground v.1.15,2013-01-05 08:16:00,
2013-01-05 01:22:00,25.1,19.2,30.48,NW,308,2.0,7.0,78,0.00,,,0.00,0,Wunderground v.1.15,2013-01-05 08:22:00,
2013-01-05 01:28:00,24.9,19.0,30.48,NW,308,2.0,7.0,78,0.00,,,0.00,0,Wunderground v.1.15,2013-01-05 08:28:00,
2013-01-05 01:34:00,24.6,19.0,30.48,NW,308,1.0,7.0,79,0.00,,,0.00,0,Wunderground v.1.15,2013-01-05 08:34:00,
2013-01-05 01:42:00,24.3,19.6,30.48,NW,308,1.0,7.0,82,0.00,,,0.00,0,Wunderground v.1.15,2013-01-05 08:42:00,
2013-01-05 01:48:00,24.1,19.7,30.47,NW,308,3.0,7.0,83,0.00,,,0.00,0,Wunderground v.1.15,2013-01-05 08:48:00,
2013-01-05 01:54:00,24.0,19.6,30.48,NW,308,3.0,7.0,83,0.00,,,0.00,0,Wunderground v.1.15,2013-01-05 08:54:00,
2013-01-05 02:00:00,24.1,19.4,30.48,NW,308,3.0,6.0,82,0.00,,,0.00,0,Wunderground v.1.15,2013-01-05 09:00:00,
2013-01-05 02:06:00,24.4,19.4,30.48,NW,308,5.0,6.0,81,0.00,,,0.00,0,Wunderground v.1.15,2013-01-05 09:06:00,
2013-01-05 02:12:00,24.3,19.6,30.48,NW,308,4.0,6.0,82,0.00,,,0.00,0,Wunderground v.1.15,2013-01-05 09:12:00,
2013-01-05 02:18:00,23.9,19.5,30.48,NW,308,5.0,6.0,83,0.00,,,0.00,0,Wunderground v.1.15,2013-01-05 09:18:00,
2013-01-05 02:24:00,23.3,18.9,30.48,WSW,256,6.0,9.0,83,0.00,,,0.00,0,Wunderground v.1.15,2013-01-05 09:24:00,
2013-01-05 02:30:00,22.7,18.6,30.49,WSW,256,6.0,6.0,84,0.00,,,0.00,0,Wunderground v.1.15,2013-01-05 09:30:00,
2013-01-05 02:36:00,22.7,18.9,30.49,WSW,256,2.0,6.0,85,0.00,,,0.00,0,Wunderground v.1.15,2013-01-05 09:36:00,
2013-01-05 02:42:00,22.6,18.8,30.49,WSW,256,1.0,6.0,85,0.00,,,0.00,0,Wunderground v.1.15,2013-01-05 09:42:00,
2013-01-05 02:48:00,22.9,18.8,30.49,WSW,256,2.0,6.0,84,0.00,,,0.00,0,Wunderground v.1.15,2013-01-05 09:48:00,
2013-01-05 02:54:00,23.7,19.3,30.50,WSW,256,4.0,6.0,83,0.00,,,0.00,0,Wunderground v.1.15,2013-01-05 09:54:00,
2013-01-05 03:02:00,24.1,19.4,30.49,WSW,256,3.0,6.0,82,0.00,,,0.00,0,Wunderground v.1.15,2013-01-05 10:02:00,
2013-01-05 03:08:00,24.1,19.4,30.49,WSW,256,2.0,6.0,82,0.00,,,0.00,0,Wunderground v.1.15,2013-01-05 10:08:00,
2013-01-05 03:16:00,23.8,19.1,30.49,WSW,256,3.0,6.0,82,0.00,,,0.00,0,Wunderground v.1.15,2013-01-05 10:16:00,
2013-01-05 03:22:00,24.0,19.3,30.48,WSW,256,4.0,6.0,82,0.00,,,0.00,0,Wunderground v.1.15,2013-01-05 10:22:00,
2013-01-05 03:28:00,24.2,19.5,30.48,WSW,256,5.0,7.0,82,0.00,,,0.00,0,Wunderground v.1.15,2013-01-05 10:28:00,
2013-01-05 03:38:00,24.9,19.6,30.48,WSW,256,4.0,6.0,80,0.00,,,0.00,0,Wunderground v.1.15,2013-01-05 10:38:00,
2013-01-05 03:44:00,24.7,19.1,30.48,WSW,256,2.0,6.0,79,0.00,,,0.00,0,Wunderground v.1.15,2013-01-05 10:44:00,
2013-01-05 03:50:00,24.4,19.1,30.48,WSW,256,1.0,1.0,80,0.00,,,0.00,0,Wunderground v.1.15,2013-01-05 10:50:00,
2013-01-05 03:56:00,23.7,17.8,30.48,WSW,256,2.0,6.0,78,0.00,,,0.00,0,Wunderground v.1.15,2013-01-05 10:56:00,
2013-01-05 04:02:00,23.1,18.1,30.47,WSW,256,2.0,6.0,81,0.00,,,0.00,0,Wunderground v.1.15,2013-01-05 11:02:00,
2013-01-05 04:08:00,23.1,18.4,30.47,WSW,256,1.0,6.0,82,0.00,,,0.00,0,Wunderground v.1.15,2013-01-05 11:08:00,
2013-01-05 04:16:00,22.9,18.2,30.48,WSW,256,1.0,6.0,82,0.00,,,0.00,0,Wunderground v.1.15,2013-01-05 11:16:00,
2013-01-05 04:22:00,22.6,17.9,30.48,WSW,256,1.0,6.0,82,0.00,,,0.00,0,Wunderground v.1.15,2013-01-05 11:22:00,
2013-01-05 04:28:00,22.1,17.4,30.47,WSW,256,2.0,6.0,82,0.00,,,0.00,0,Wunderground v.1.15,2013-01-05 11:28:00,
2013-01-05 04:36:00,21.5,17.1,30.47,WSW,256,4.0,6.0,83,0.00,,,0.00,0,Wunderground v.1.15,2013-01-05 11:36:00,
2013-01-05 04:42:00,21.8,17.7,30.47,WSW,256,4.0,6.0,84,0.00,,,0.00,0,Wunderground v.1.15,2013-01-05 11:42:00,
2013-01-05 04:48:00,21.8,17.4,30.46,WSW,256,5.0,7.0,83,0.00,,,0.00,0,Wunderground v.1.15,2013-01-05 11:48:00,
2013-01-05 04:54:00,22.6,17.6,30.46,WSW,256,7.0,8.0,81,0.00,,,0.00,0,Wunderground v.1.15,2013-01-05 11:54:00,
2013-01-05 05:00:00,23.1,18.1,30.46,SSW,197,9.0,12.0,81,0.00,,,0.00,0,Wunderground v.1.15,2013-01-05 12:00:00,
2013-01-05 05:06:00,23.7,18.7,30.45,South,189,11.0,12.0,81,0.00,,,0.00,0,Wunderground v.1.15,2013-01-05 12:06:00,
2013-01-05 05:12:00,24.2,18.9,30.46,South,189,12.0,12.0,80,0.00,,,0.00,0,Wunderground v.1.15,2013-01-05 12:12:00,
2013-01-05 05:18:00,25.4,19.5,30.46,South,182,13.0,15.0,78,0.00,,,0.00,0,Wunderground v.1.15,2013-01-05 12:18:00,
2013-01-05 05:24:00,26.4,19.9,30.46,South,177,14.0,14.0,76,0.00,,,0.00,0,Wunderground v.1.15,2013-01-05 12:24:00,
2013-01-05 05:30:00,26.5,19.6,30.46,South,177,13.0,13.0,75,0.00,,,0.00,0,Wunderground v.1.15,2013-01-05 12:30:00,
2013-01-05 05:36:00,26.5,19.6,30.46,South,177,13.0,14.0,75,0.00,,,0.00,0,Wunderground v.1.15,2013-01-05 12:36:00,
2013-01-05 05:42:00,26.5,19.6,30.46,South,171,13.0,14.0,75,0.00,,,0.00,0,Wunderground v.1.15,2013-01-05 12:42:00,
2013-01-05 05:48:00,27.2,20.0,30.47,South,171,14.0,14.0,74,0.00,,,0.00,0,Wunderground v.1.15,2013-01-05 12:48:00,
2013-01-05 05:54:00,27.9,20.0,30.47,South,171,13.0,13.0,72,0.00,,,0.00,0,Wunderground v.1.15,2013-01-05 12:54:00,
2013-01-05 06:00:00,27.3,19.5,30.47,South,171,11.0,11.0,72,0.00,,,0.00,0,Wunderground v.1.15,2013-01-05 13:00:00,
2013-01-05 06:06:00,27.1,19.6,30.47,South,171,10.0,16.0,73,0.00,,,0.00,0,Wunderground v.1.15,2013-01-05 13:06:00,
2013-01-05 06:12:00,27.5,19.7,30.47,South,171,10.0,16.0,72,0.00,,,0.00,0,Wunderground v.1.15,2013-01-05 13:12:00,
2013-01-05 06:18:00,27.6,19.8,30.46,South,174,11.0,16.0,72,0.00,,,0.00,0,Wunderground v.1.15,2013-01-05 13:18:00,
2013-01-05 06:24:00,28.0,19.8,30.46,South,177,11.0,16.0,71,0.00,,,0.00,0,Wunderground v.1.15,2013-01-05 13:24:00,
2013-01-05 06:30:00,26.9,18.4,30.46,South,189,10.0,10.0,70,0.00,,,0.00,0,Wunderground v.1.15,2013-01-05 13:30:00,
2013-01-05 06:36:00,22.0,15.0,30.46,South,191,9.0,16.0,74,0.00,,,0.00,0,Wunderground v.1.15,2013-01-05 13:36:00,
2013-01-05 06:42:00,19.7,14.5,30.47,South,191,10.0,16.0,80,0.00,,,0.00,0,Wunderground v.1.15,2013-01-05 13:42:00,
2013-01-05 06:48:00,19.1,14.5,30.46,SSW,194,11.0,16.0,82,0.00,,,0.00,0,Wunderground v.1.15,2013-01-05 13:48:00,
2013-01-05 06:54:00,19.2,14.6,30.46,SSW,194,12.0,16.0,82,0.00,,,0.00,0,Wunderground v.1.15,2013-01-05 13:54:00,
2013-01-05 07:00:00,19.8,15.5,30.47,SSW,194,12.0,12.0,83,0.00,,,0.00,0,Wunderground v.1.15,2013-01-05 14:00:00,
2013-01-05 07:06:00,19.7,14.8,30.48,SSW,194,6.0,16.0,81,0.00,,,0.00,0,Wunderground v.1.15,2013-01-05 14:06:00,
2013-01-05 07:12:00,19.8,15.2,30.47,SSW,194,2.0,16.0,82,0.00,,,0.00,0,Wunderground v.1.15,2013-01-05 14:12:00,
2013-01-05 07:18:00,19.7,15.1,30.47,SSW,194,2.0,16.0,82,0.00,,,0.00,0,Wunderground v.1.15,2013-01-05 14:18:00,
2013-01-05 07:24:00,19.0,14.1,30.48,SSW,194,3.0,16.0,81,0.00,,,0.00,0,Wunderground v.1.15,2013-01-05 14:24:00,
2013-01-05 07:30:00,18.9,14.6,30.48,SSW,194,3.0,3.0,83,0.00,,,0.00,0,Wunderground v.1.15,2013-01-05 14:30:00,
2013-01-05 07:36:00,18.9,14.9,30.48,SSW,194,3.0,16.0,84,0.00,,,0.00,0,Wunderground v.1.15,2013-01-05 14:36:00,
2013-01-05 07:42:00,18.2,13.6,30.48,SSW,194,4.0,16.0,82,0.00,,,0.00,0,Wunderground v.1.15,2013-01-05 14:42:00,
2013-01-05 07:48:00,17.5,12.9,30.48,SSW,194,3.0,16.0,82,0.00,,,0.00,0,Wunderground v.1.15,2013-01-05 14:48:00,
2013-01-05 07:54:00,17.2,13.2,30.48,SSW,194,2.0,16.0,84,0.00,,,0.00,0,Wunderground v.1.15,2013-01-05 14:54:00,
2013-01-05 08:00:00,17.2,13.5,30.48,SSW,194,2.0,16.0,85,0.00,,,0.00,0,Wunderground v.1.15,2013-01-05 15:00:00,
2013-01-05 08:06:00,17.1,13.4,30.48,SSW,194,3.0,16.0,85,0.00,,,0.00,0,Wunderground v.1.15,2013-01-05 15:06:00,
2013-01-05 08:12:00,17.5,14.0,30.48,SSW,194,3.0,16.0,86,0.00,,,0.00,0,Wunderground v.1.15,2013-01-05 15:12:00,
2013-01-05 08:18:00,18.0,14.5,30.48,SSW,194,1.0,16.0,86,0.00,,,0.00,5,Wunderground v.1.15,2013-01-05 15:18:00,
2013-01-05 08:24:00,17.6,13.9,30.48,SSW,194,3.0,16.0,85,0.00,,,0.00,7,Wunderground v.1.15,2013-01-05 15:24:00,
2013-01-05 08:30:00,17.5,13.8,30.48,SSW,194,2.0,2.0,85,0.00,,,0.00,9,Wunderground v.1.15,2013-01-05 15:30:00,
2013-01-05 08:36:00,17.4,13.7,30.48,SSW,194,2.0,16.0,85,0.00,,,0.00,11,Wunderground v.1.15,2013-01-05 15:36:00,
2013-01-05 08:42:00,17.2,13.5,30.48,SSW,194,2.0,16.0,85,0.00,,,0.00,12,Wunderground v.1.15,2013-01-05 15:42:00,
2013-01-05 08:48:00,17.2,13.5,30.48,SSW,194,4.0,16.0,85,0.00,,,0.00,26,Wunderground v.1.15,2013-01-05 15:48:00,
2013-01-05 08:54:00,17.3,13.6,30.47,SSW,194,5.0,16.0,85,0.00,,,0.00,46,Wunderground v.1.15,2013-01-05 15:54:00,
2013-01-05 09:00:00,17.5,13.5,30.48,SSW,194,5.0,16.0,84,0.00,,,0.00,58,Wunderground v.1.15,2013-01-05 16:00:00,
2013-01-05 09:06:00,17.6,13.6,30.48,SSW,194,6.0,16.0,84,0.00,,,0.00,72,Wunderground v.1.15,2013-01-05 16:06:00,
2013-01-05 09:12:00,17.8,13.8,30.47,SSW,194,6.0,7.0,84,0.00,,,0.00,84,Wunderground v.1.15,2013-01-05 16:12:00,
2013-01-05 09:18:00,18.2,14.2,30.47,SSW,194,5.0,16.0,84,0.00,,,0.00,97,Wunderground v.1.15,2013-01-05 16:18:00,
2013-01-05 09:24:00,18.6,14.6,30.48,SSW,194,4.0,16.0,84,0.00,,,0.00,107,Wunderground v.1.15,2013-01-05 16:24:00,
2013-01-05 09:30:00,18.9,14.6,30.47,SSW,194,1.0,16.0,83,0.00,,,0.00,113,Wunderground v.1.15,2013-01-05 16:30:00,
2013-01-05 09:36:00,18.6,14.3,30.47,SSW,194,2.0,16.0,83,0.00,,,0.00,125,Wunderground v.1.15,2013-01-05 16:36:00,
2013-01-05 09:42:00,18.2,13.9,30.48,SSW,194,3.0,16.0,83,0.00,,,0.00,142,Wunderground v.1.15,2013-01-05 16:42:00,
2013-01-05 09:48:00,18.0,13.7,30.47,SSW,194,3.0,16.0,83,0.00,,,0.00,156,Wunderground v.1.15,2013-01-05 16:48:00,
2013-01-05 09:54:00,17.9,13.9,30.47,SSW,194,3.0,16.0,84,0.00,,,0.00,174,Wunderground v.1.15,2013-01-05 16:54:00,
2013-01-05 10:00:00,18.5,14.5,30.47,SSW,194,3.0,16.0,84,0.00,,,0.00,190,Wunderground v.1.15,2013-01-05 17:00:00,
2013-01-05 10:06:00,19.1,15.1,30.47,SSW,194,3.0,16.0,84,0.00,,,0.00,206,Wunderground v.1.15,2013-01-05 17:06:00,
2013-01-05 10:12:00,19.9,15.6,30.47,SSW,194,2.0,16.0,83,0.00,,,0.00,216,Wunderground v.1.15,2013-01-05 17:12:00,
2013-01-05 10:18:00,20.4,15.8,30.47,SSW,194,1.0,16.0,82,0.00,,,0.00,225,Wunderground v.1.15,2013-01-05 17:18:00,
2013-01-05 10:24:00,21.1,16.2,30.47,SSW,194,1.0,16.0,81,0.00,,,0.00,236,Wunderground v.1.15,2013-01-05 17:24:00,
2013-01-05 10:30:00,21.8,16.6,30.47,SSW,194,1.0,1.0,80,0.00,,,0.00,246,Wunderground v.1.15,2013-01-05 17:30:00,
2013-01-05 10:36:00,22.6,16.8,30.47,SSW,194,1.0,16.0,78,0.00,,,0.00,257,Wunderground v.1.15,2013-01-05 17:36:00,
2013-01-05 10:42:00,23.3,17.2,30.46,SSW,194,1.0,16.0,77,0.00,,,0.00,267,Wunderground v.1.15,2013-01-05 17:42:00,
2013-01-05 10:48:00,23.6,17.1,30.47,SSW,194,1.0,16.0,76,0.00,,,0.00,278,Wunderground v.1.15,2013-01-05 17:48:00,
2013-01-05 10:54:00,23.8,17.3,30.46,SSW,194,2.0,16.0,76,0.00,,,0.00,285,Wunderground v.1.15,2013-01-05 17:54:00,
2013-01-05 11:00:00,24.3,17.8,30.45,SSW,194,2.0,3.0,76,0.00,,,0.00,294,Wunderground v.1.15,2013-01-05 18:00:00,
2013-01-05 11:06:00,24.9,18.4,30.45,SSW,194,1.0,3.0,76,0.00,,,0.00,302,Wunderground v.1.15,2013-01-05 18:06:00,
2013-01-05 11:12:00,25.7,18.9,30.45,SSW,194,1.0,3.0,75,0.00,,,0.00,309,Wunderground v.1.15,2013-01-05 18:12:00,
2013-01-05 11:18:00,26.6,19.1,30.45,SSW,194,0.0,3.0,73,0.00,,,0.00,316,Wunderground v.1.15,2013-01-05 18:18:00,
2013-01-05 11:24:00,27.3,19.5,30.44,SSW,194,0.0,3.0,72,0.00,,,0.00,323,Wunderground v.1.15,2013-01-05 18:24:00,
2013-01-05 11:30:00,28.4,19.5,30.44,SSW,194,1.0,3.0,69,0.00,,,0.00,330,Wunderground v.1.15,2013-01-05 18:30:00,
2013-01-05 11:36:00,29.1,19.5,30.44,SSW,194,1.0,3.0,67,0.00,,,0.00,336,Wunderground v.1.15,2013-01-05 18:36:00,
2013-01-05 11:42:00,29.1,19.5,30.43,SSW,194,1.0,3.0,67,0.00,,,0.00,341,Wunderground v.1.15,2013-01-05 18:42:00,
2013-01-05 11:48:00,29.5,20.2,30.43,SSW,194,1.0,3.0,68,0.00,,,0.00,348,Wunderground v.1.15,2013-01-05 18:48:00,
2013-01-05 11:54:00,30.7,21.0,30.43,SSW,194,2.0,6.0,67,0.00,,,0.00,352,Wunderground v.1.15,2013-01-05 18:54:00,
2013-01-05 12:00:00,31.7,21.3,30.42,SSW,194,6.0,7.0,65,0.00,,,0.00,355,Wunderground v.1.15,2013-01-05 19:00:00,
2013-01-05 12:06:00,32.3,21.1,30.41,SSW,194,5.0,7.0,63,0.00,,,0.00,360,Wunderground v.1.15,2013-01-05 19:06:00,
2013-01-05 12:12:00,32.5,21.3,30.41,SSW,194,3.0,6.0,63,0.00,,,0.00,364,Wunderground v.1.15,2013-01-05 19:12:00,
2013-01-05 12:18:00,34.1,21.3,30.41,SSW,194,3.0,6.0,59,0.00,,,0.00,366,Wunderground v.1.15,2013-01-05 19:18:00,
2013-01-05 12:24:00,34.7,21.4,30.40,SSW,194,5.0,9.0,58,0.00,,,0.00,367,Wunderground v.1.15,2013-01-05 19:24:00,
2013-01-05 12:30:00,34.1,21.7,30.40,SSW,194,8.0,8.0,60,0.00,,,0.00,369,Wunderground v.1.15,2013-01-05 19:30:00,
2013-01-05 12:36:00,34.7,21.4,30.40,SSE,158,9.0,13.0,58,0.00,,,0.00,371,Wunderground v.1.15,2013-01-05 19:36:00,
2013-01-05 12:42:00,35.2,21.5,30.39,SSE,164,13.0,14.0,57,0.00,,,0.00,369,Wunderground v.1.15,2013-01-05 19:42:00,
2013-01-05 12:48:00,34.8,21.5,30.39,SSE,164,13.0,15.0,58,0.00,,,0.00,371,Wunderground v.1.15,2013-01-05 19:48:00,
2013-01-05 12:54:00,35.1,21.4,30.38,SSE,161,13.0,14.0,57,0.00,,,0.00,362,Wunderground v.1.15,2013-01-05 19:54:00,
2013-01-05 13:00:00,35.6,21.4,30.38,SSE,156,14.0,14.0,56,0.00,,,0.00,360,Wunderground v.1.15,2013-01-05 20:00:00,
2013-01-05 13:06:00,35.8,21.6,30.37,SSE,156,12.0,14.0,56,0.00,,,0.00,360,Wunderground v.1.15,2013-01-05 20:06:00,
2013-01-05 13:12:00,36.2,21.6,30.37,SSE,156,9.0,10.0,55,0.00,,,0.00,355,Wunderground v.1.15,2013-01-05 20:12:00,
2013-01-05 13:18:00,36.1,21.5,30.37,SSE,156,8.0,10.0,55,0.00,,,0.00,346,Wunderground v.1.15,2013-01-05 20:18:00,
2013-01-05 13:24:00,35.7,21.9,30.36,SSE,156,7.0,8.0,57,0.00,,,0.00,330,Wunderground v.1.15,2013-01-05 20:24:00,
2013-01-05 13:30:00,35.8,21.6,30.35,SSE,159,8.0,11.0,56,0.00,,,0.00,346,Wunderground v.1.15,2013-01-05 20:30:00,
2013-01-05 13:38:00,36.7,21.6,30.35,SSE,161,11.0,12.0,54,0.00,,,0.00,352,Wunderground v.1.15,2013-01-05 20:38:00,
2013-01-05 13:44:00,37.2,21.2,30.35,SSE,162,10.0,10.0,52,0.00,,,0.00,343,Wunderground v.1.15,2013-01-05 20:44:00,
2013-01-05 13:50:00,36.6,21.5,30.35,SSE,162,9.0,9.0,54,0.00,,,0.00,287,Wunderground v.1.15,2013-01-05 20:50:00,
2013-01-05 13:56:00,37.0,21.4,30.34,SSE,152,10.0,15.0,53,0.00,,,0.00,308,Wunderground v.1.15,2013-01-05 20:56:00,
2013-01-05 14:02:00,37.1,21.1,30.35,SSE,149,14.0,14.0,52,0.00,,,0.00,279,Wunderground v.1.15,2013-01-05 21:02:00,
2013-01-05 14:10:00,36.9,20.9,30.34,SE,142,15.0,15.0,52,0.00,,,0.00,311,Wunderground v.1.15,2013-01-05 21:10:00,
2013-01-05 14:18:00,36.9,21.3,30.34,SSE,156,14.0,16.0,53,0.00,,,0.00,299,Wunderground v.1.15,2013-01-05 21:18:00,
2013-01-05 14:24:00,36.9,21.3,30.33,SSE,150,13.0,15.0,53,0.00,,,0.00,302,Wunderground v.1.15,2013-01-05 21:24:00,
2013-01-05 14:32:00,37.5,21.5,30.33,SSE,149,12.0,12.0,52,0.00,,,0.00,299,Wunderground v.1.15,2013-01-05 21:32:00,
2013-01-05 14:38:00,38.0,21.0,30.33,SSE,153,11.0,12.0,50,0.00,,,0.00,267,Wunderground v.1.15,2013-01-05 21:38:00,
2013-01-05 14:44:00,37.8,21.3,30.33,SSE,153,10.0,13.0,51,0.00,,,0.00,223,Wunderground v.1.15,2013-01-05 21:44:00,
2013-01-05 14:50:00,37.1,22.4,30.33,SSE,151,9.0,9.0,55,0.00,,,0.00,207,Wunderground v.1.15,2013-01-05 21:50:00,
2013-01-05 14:58:00,35.1,22.6,30.33,SSE,151,3.0,9.0,60,0.00,,,0.00,181,Wunderground v.1.15,2013-01-05 21:58:00,
2013-01-05 15:04:00,33.9,23.0,30.33,SSE,151,5.0,16.0,64,0.00,,,0.00,185,Wunderground v.1.15,2013-01-05 22:04:00,
2013-01-05 15:18:00,32.2,22.8,30.32,SSE,152,5.0,16.0,68,0.00,,,0.00,188,Wunderground v.1.15,2013-01-05 22:18:00,
2013-01-05 15:24:00,32.4,22.7,30.33,SSE,152,6.0,16.0,67,0.00,,,0.00,155,Wunderground v.1.15,2013-01-05 22:24:00,
2013-01-05 15:32:00,31.7,22.7,30.32,SSE,152,6.0,16.0,69,0.00,,,0.00,162,Wunderground v.1.15,2013-01-05 22:32:00,
2013-01-05 15:38:00,31.5,22.8,30.32,SSE,152,6.0,16.0,70,0.00,,,0.00,146,Wunderground v.1.15,2013-01-05 22:38:00,
2013-01-05 15:44:00,30.8,22.5,30.32,NE,37,11.0,16.0,71,0.00,,,0.00,72,Wunderground v.1.15,2013-01-05 22:44:00,
2013-01-05 15:52:00,30.2,21.9,30.32,NNE,15,9.0,16.0,71,0.00,,,0.00,60,Wunderground v.1.15,2013-01-05 22:52:00,
2013-01-05 15:58:00,29.4,21.5,30.32,NNE,15,9.0,16.0,72,0.00,,,0.00,51,Wunderground v.1.15,2013-01-05 22:58:00,
2013-01-05 16:04:00,28.7,21.1,30.32,NNE,15,8.0,16.0,73,0.00,,,0.00,44,Wunderground v.1.15,2013-01-05 23:04:00,
2013-01-05 16:12:00,28.3,21.1,30.32,NNE,15,8.0,16.0,74,0.00,,,0.00,47,Wunderground v.1.15,2013-01-05 23:12:00,
2013-01-05 16:18:00,27.8,20.9,30.32,NNE,15,7.0,16.0,75,0.00,,,0.00,46,Wunderground v.1.15,2013-01-05 23:18:00,
2013-01-05 16:24:00,27.6,20.7,30.32,NNE,15,5.0,16.0,75,0.00,,,0.00,42,Wunderground v.1.15,2013-01-05 23:24:00,
2013-01-05 16:32:00,27.1,20.2,30.32,NNE,15,6.0,16.0,75,0.00,,,0.00,30,Wunderground v.1.15,2013-01-05 23:32:00,
2013-01-05 16:38:00,26.6,20.1,30.32,NNE,15,5.0,16.0,76,0.00,,,0.00,21,Wunderground v.1.15,2013-01-05 23:38:00,
2013-01-05 16:48:00,25.6,19.1,30.31,NNE,15,5.0,16.0,76,0.00,,,0.00,12,Wunderground v.1.15,2013-01-05 23:48:00,
2013-01-05 16:54:00,25.1,18.9,30.31,NNE,15,3.0,16.0,77,0.00,,,0.00,7,Wunderground v.1.15,2013-01-05 23:54:00,
2013-01-05 17:00:00,24.8,18.9,30.31,NNE,15,4.0,4.0,78,0.00,,,0.00,0,Wunderground v.1.15,2013-01-06 00:00:00,
2013-01-05 17:06:00,24.3,18.7,30.31,NNE,15,4.0,16.0,79,0.00,,,0.00,0,Wunderground v.1.15,2013-01-06 00:06:00,
2013-01-05 17:12:00,24.2,18.9,30.31,NNE,15,3.0,16.0,80,0.00,,,0.00,0,Wunderground v.1.15,2013-01-06 00:12:00,
2013-01-05 17:18:00,23.9,18.6,30.31,NNE,15,3.0,16.0,80,0.00,,,0.00,0,Wunderground v.1.15,2013-01-06 00:18:00,
2013-01-05 17:24:00,23.7,18.4,30.31,NNE,15,3.0,16.0,80,0.00,,,0.00,0,Wunderground v.1.15,2013-01-06 00:24:00,
2013-01-05 17:32:00,23.6,18.6,30.31,NNE,15,4.0,16.0,81,0.00,,,0.00,0,Wunderground v.1.15,2013-01-06 00:32:00,
2013-01-05 17:38:00,23.6,18.6,30.31,NNE,15,3.0,16.0,81,0.00,,,0.00,0,Wunderground v.1.15,2013-01-06 00:38:00,
2013-01-05 17:44:00,23.6,18.6,30.31,NNE,15,2.0,16.0,81,0.00,,,0.00,0,Wunderground v.1.15,2013-01-06 00:44:00,
2013-01-05 17:52:00,23.4,18.4,30.30,NNE,15,2.0,16.0,81,0.00,,,0.00,0,Wunderground v.1.15,2013-01-06 00:52:00,
2013-01-05 17:58:00,23.1,18.1,30.30,NNE,15,2.0,16.0,81,0.00,,,0.00,0,Wunderground v.1.15,2013-01-06 00:58:00,
2013-01-05 18:04:00,22.8,17.8,30.30,NNE,15,2.0,16.0,81,0.00,,,0.00,0,Wunderground v.1.15,2013-01-06 01:04:00,
2013-01-05 18:10:00,22.5,17.8,30.30,NNE,15,4.0,16.0,82,0.00,,,0.00,0,Wunderground v.1.15,2013-01-06 01:10:00,
2013-01-05 18:16:00,22.7,18.0,30.30,NNE,15,5.0,16.0,82,0.00,,,0.00,0,Wunderground v.1.15,2013-01-06 01:16:00,
2013-01-05 18:22:00,22.7,17.7,30.30,NNE,15,5.0,16.0,81,0.00,,,0.00,0,Wunderground v.1.15,2013-01-06 01:22:00,
2013-01-05 18:28:00,22.4,17.7,30.30,NNE,15,5.0,16.0,82,0.00,,,0.00,0,Wunderground v.1.15,2013-01-06 01:28:00,
2013-01-05 18:34:00,22.1,17.4,30.29,NNE,15,4.0,16.0,82,0.00,,,0.00,0,Wunderground v.1.15,2013-01-06 01:34:00,
2013-01-05 18:40:00,21.7,17.3,30.30,NNE,15,3.0,16.0,83,0.00,,,0.00,0,Wunderground v.1.15,2013-01-06 01:40:00,
2013-01-05 18:46:00,21.5,17.4,30.29,NNE,15,3.0,16.0,84,0.00,,,0.00,0,Wunderground v.1.15,2013-01-06 01:46:00,
2013-01-05 18:52:00,21.6,17.5,30.28,NNE,15,4.0,16.0,84,0.00,,,0.00,0,Wunderground v.1.15,2013-01-06 01:52:00,
2013-01-05 18:58:00,21.8,17.4,30.29,NNE,15,4.0,16.0,83,0.00,,,0.00,0,Wunderground v.1.15,2013-01-06 01:58:00,
2013-01-05 19:04:00,21.5,17.1,30.29,NNE,15,4.0,16.0,83,0.00,,,0.00,0,Wunderground v.1.15,2013-01-06 02:04:00,
2013-01-05 19:10:00,21.2,17.1,30.28,NNE,15,4.0,4.0,84,0.00,,,0.00,0,Wunderground v.1.15,2013-01-06 02:10:00,
2013-01-05 19:16:00,21.5,17.7,30.27,NNE,15,5.0,16.0,85,0.00,,,0.00,0,Wunderground v.1.15,2013-01-06 02:16:00,
2013-01-05 19:22:00,21.7,17.9,30.28,NNE,15,5.0,16.0,85,0.00,,,0.00,0,Wunderground v.1.15,2013-01-06 02:22:00,
2013-01-05 19:28:00,22.0,17.9,30.27,NNE,15,6.0,16.0,84,0.00,,,0.00,0,Wunderground v.1.15,2013-01-06 02:28:00,
2013-01-05 19:34:00,21.9,17.8,30.27,NNE,15,5.0,9.0,84,0.00,,,0.00,0,Wunderground v.1.15,2013-01-06 02:34:00,
2013-01-05 19:40:00,22.3,18.2,30.27,NNE,15,5.0,16.0,84,0.00,,,0.00,0,Wunderground v.1.15,2013-01-06 02:40:00,
2013-01-05 19:46:00,22.6,17.9,30.27,NNE,15,5.0,16.0,82,0.00,,,0.00,0,Wunderground v.1.15,2013-01-06 02:46:00,
2013-01-05 19:52:00,23.0,18.0,30.27,NNE,15,3.0,16.0,81,0.00,,,0.00,0,Wunderground v.1.15,2013-01-06 02:52:00,
2013-01-05 19:58:00,23.5,18.2,30.26,NNE,15,2.0,16.0,80,0.00,,,0.00,0,Wunderground v.1.15,2013-01-06 02:58:00,
2013-01-05 20:04:00,23.8,18.2,30.27,NNE,15,2.0,10.0,79,0.00,,,0.00,0,Wunderground v.1.15,2013-01-06 03:04:00,
2013-01-05 20:10:00,24.1,18.5,30.26,NNE,15,2.0,2.0,79,0.00,,,0.00,0,Wunderground v.1.15,2013-01-06 03:10:00,
2013-01-05 20:16:00,24.6,18.7,30.26,NNE,15,3.0,10.0,78,0.00,,,0.00,0,Wunderground v.1.15,2013-01-06 03:16:00,
2013-01-05 20:22:00,25.1,18.9,30.26,NNE,15,4.0,10.0,77,0.00,,,0.00,0,Wunderground v.1.15,2013-01-06 03:22:00,
2013-01-05 20:30:00,25.0,18.8,30.26,NNE,15,6.0,10.0,77,0.00,,,0.00,0,Wunderground v.1.15,2013-01-06 03:30:00,
2013-01-05 20:36:00,24.9,18.7,30.26,NNE,15,6.0,10.0,77,0.00,,,0.00,0,Wunderground v.1.15,2013-01-06 03:36:00,
2013-01-05 20:42:00,24.6,18.4,30.26,NNE,15,5.0,10.0,77,0.00,,,0.00,0,Wunderground v.1.15,2013-01-06 03:42:00,
2013-01-05 20:48:00,24.2,18.3,30.27,North,6,7.0,11.0,78,0.00,,,0.00,0,Wunderground v.1.15,2013-01-06 03:48:00,
2013-01-05 20:54:00,22.1,16.3,30.27,North,351,8.0,10.0,78,0.00,,,0.00,0,Wunderground v.1.15,2013-01-06 03:54:00,
2013-01-05 21:00:00,20.8,15.9,30.27,North,351,5.0,5.0,81,0.00,,,0.00,0,Wunderground v.1.15,2013-01-06 04:00:00,
2013-01-05 21:06:00,20.1,15.8,30.27,North,351,4.0,10.0,83,0.00,,,0.00,0,Wunderground v.1.15,2013-01-06 04:06:00,
2013-01-05 21:14:00,19.6,15.6,30.27,North,351,5.0,10.0,84,0.00,,,0.00,0,Wunderground v.1.15,2013-01-06 04:14:00,
2013-01-05 21:20:00,19.4,15.6,30.27,North,351,4.0,4.0,85,0.00,,,0.00,0,Wunderground v.1.15,2013-01-06 04:20:00,
2013-01-05 21:26:00,19.4,15.9,30.27,North,351,3.0,10.0,86,0.00,,,0.00,0,Wunderground v.1.15,2013-01-06 04:26:00,
2013-01-05 21:32:00,19.5,16.0,30.27,North,351,2.0,10.0,86,0.00,,,0.00,0,Wunderground v.1.15,2013-01-06 04:32:00,
2013-01-05 21:38:00,19.5,16.0,30.27,North,351,1.0,10.0,86,0.00,,,0.00,0,Wunderground v.1.15,2013-01-06 04:38:00,
2013-01-05 21:44:00,19.6,15.8,30.26,North,351,0.0,10.0,85,0.00,,,0.00,0,Wunderground v.1.15,2013-01-06 04:44:00,
2013-01-05 21:50:00,19.7,16.2,30.27,North,351,1.0,10.0,86,0.00,,,0.00,0,Wunderground v.1.15,2013-01-06 04:50:00,
2013-01-05 21:56:00,19.8,16.3,30.27,North,351,3.0,10.0,86,0.00,,,0.00,0,Wunderground v.1.15,2013-01-06 04:56:00,
2013-01-05 22:02:00,19.8,16.3,30.27,North,351,4.0,10.0,86,0.00,,,0.00,0,Wunderground v.1.15,2013-01-06 05:02:00,
2013-01-05 22:04:00,19.8,16.3,30.26,North,351,3.0,10.0,86,0.00,,,0.00,0,Wunderground v.1.15,2013-01-06 05:04:00,
2013-01-05 22:06:00,19.8,16.3,30.26,North,351,2.0,10.0,86,0.00,,,0.00,0,Wunderground v.1.15,2013-01-06 05:06:00,
2013-01-05 22:14:00,19.7,16.2,30.27,North,351,3.0,10.0,86,0.00,,,0.00,0,Wunderground v.1.15,2013-01-06 05:14:00,
2013-01-05 22:20:00,19.4,15.9,30.27,North,351,3.0,3.0,86,0.00,,,0.00,0,Wunderground v.1.15,2013-01-06 05:20:00,
2013-01-05 22:26:00,19.1,15.6,30.26,North,351,3.0,10.0,86,0.00,,,0.00,0,Wunderground v.1.15,2013-01-06 05:26:00,
2013-01-05 22:32:00,19.0,15.5,30.27,North,351,1.0,10.0,86,0.00,,,0.00,0,Wunderground v.1.15,2013-01-06 05:32:00,
2013-01-05 22:38:00,19.0,15.5,30.27,North,351,0.0,10.0,86,0.00,,,0.00,0,Wunderground v.1.15,2013-01-06 05:38:00,
2013-01-05 22:44:00,19.0,15.5,30.27,North,351,0.0,10.0,86,0.00,,,0.00,0,Wunderground v.1.15,2013-01-06 05:44:00,
2013-01-05 22:50:00,19.0,15.8,30.27,North,351,0.0,10.0,87,0.00,,,0.00,0,Wunderground v.1.15,2013-01-06 05:50:00,
2013-01-05 22:56:00,19.0,15.8,30.27,North,351,0.0,10.0,87,0.00,,,0.00,0,Wunderground v.1.15,2013-01-06 05:56:00,
2013-01-05 23:02:00,19.0,15.8,30.27,North,351,0.0,10.0,87,0.00,,,0.00,0,Wunderground v.1.15,2013-01-06 06:02:00,
2013-01-05 23:08:00,19.0,16.0,30.27,North,351,1.0,10.0,88,0.00,,,0.00,0,Wunderground v.1.15,2013-01-06 06:08:00,
2013-01-05 23:14:00,19.0,16.0,30.27,North,351,1.0,10.0,88,0.00,,,0.00,0,Wunderground v.1.15,2013-01-06 06:14:00,
2013-01-05 23:20:00,19.1,16.1,30.27,North,351,1.0,1.0,88,0.00,,,0.00,0,Wunderground v.1.15,2013-01-06 06:20:00,
2013-01-05 23:26:00,19.1,16.1,30.26,North,351,1.0,10.0,88,0.00,,,0.00,0,Wunderground v.1.15,2013-01-06 06:26:00,
2013-01-05 23:34:00,19.4,16.2,30.26,North,351,1.0,10.0,87,0.00,,,0.00,0,Wunderground v.1.15,2013-01-06 06:34:00,
2013-01-05 23:40:00,19.5,16.3,30.26,North,351,1.0,10.0,87,0.00,,,0.00,0,Wunderground v.1.15,2013-01-06 06:40:00,
2013-01-05 23:46:00,19.5,16.3,30.26,North,351,1.0,10.0,87,0.00,,,0.00,0,Wunderground v.1.15,2013-01-06 06:46:00,
2013-01-05 23:52:00,19.5,16.5,30.26,North,351,0.0,10.0,88,0.00,,,0.00,0,Wunderground v.1.15,2013-01-06 06:52:00,
2013-01-05 23:58:00,19.5,16.5,30.26,North,351,0.0,10.0,88,0.00,,,0.00,0,Wunderground v.1.15,2013-01-06 06:58:00,